sensor_id;sensor_type;location;lat;lon;timestamp;temperature;humidity
67769;DHT22;54569;52.018;5.584;2023-02-28T00:02:18;2.10;57.40
67769;DHT22;54569;52.018;5.584;2023-02-28T00:04:44;2.10;57.40
67769;DHT22;54569;52.018;5.584;2023-02-28T00:07:09;2.10;57.30
67769;DHT22;54569;52.018;5.584;2023-02-28T00:09:35;2.20;57.30
67769;DHT22;54569;52.018;5.584;2023-02-28T00:12:01;2.20;57.40
67769;DHT22;54569;52.018;5.584;2023-02-28T00:14:38;2.20;57.30
67769;DHT22;54569;52.018;5.584;2023-02-28T00:17:04;2.20;57.20
67769;DHT22;54569;52.018;5.584;2023-02-28T00:19:30;2.30;57.40
67769;DHT22;54569;52.018;5.584;2023-02-28T00:21:55;2.40;57.40
67769;DHT22;54569;52.018;5.584;2023-02-28T00:24:21;2.40;57.40
67769;DHT22;54569;52.018;5.584;2023-02-28T00:26:46;2.40;57.30
67769;DHT22;54569;52.018;5.584;2023-02-28T00:29:12;2.50;57.20
67769;DHT22;54569;52.018;5.584;2023-02-28T00:31:39;2.50;57.10
67769;DHT22;54569;52.018;5.584;2023-02-28T00:34:05;2.60;57.10
67769;DHT22;54569;52.018;5.584;2023-02-28T00:36:30;2.60;57.20
67769;DHT22;54569;52.018;5.584;2023-02-28T00:38:56;2.60;57.20
67769;DHT22;54569;52.018;5.584;2023-02-28T00:41:22;2.70;57.30
67769;DHT22;54569;52.018;5.584;2023-02-28T00:43:47;2.70;57.20
67769;DHT22;54569;52.018;5.584;2023-02-28T00:46:13;2.70;57.10
67769;DHT22;54569;52.018;5.584;2023-02-28T00:48:39;2.70;57.30
67769;DHT22;54569;52.018;5.584;2023-02-28T00:51:05;2.70;57.20
67769;DHT22;54569;52.018;5.584;2023-02-28T00:53:30;2.80;57.40
67769;DHT22;54569;52.018;5.584;2023-02-28T00:55:58;2.80;57.30
67769;DHT22;54569;52.018;5.584;2023-02-28T00:58:25;2.80;57.80
67769;DHT22;54569;52.018;5.584;2023-02-28T01:00:54;2.80;57.60
67769;DHT22;54569;52.018;5.584;2023-02-28T01:03:20;2.80;57.30
67769;DHT22;54569;52.018;5.584;2023-02-28T01:05:47;2.80;57.50
67769;DHT22;54569;52.018;5.584;2023-02-28T01:08:14;2.90;57.50
67769;DHT22;54569;52.018;5.584;2023-02-28T01:10:40;2.90;57.50
67769;DHT22;54569;52.018;5.584;2023-02-28T01:13:06;2.90;57.40
67769;DHT22;54569;52.018;5.584;2023-02-28T01:15:33;2.90;57.50
67769;DHT22;54569;52.018;5.584;2023-02-28T01:17:59;2.90;57.60
67769;DHT22;54569;52.018;5.584;2023-02-28T01:20:24;2.90;57.60
67769;DHT22;54569;52.018;5.584;2023-02-28T01:22:50;2.90;57.50
67769;DHT22;54569;52.018;5.584;2023-02-28T01:25:16;2.90;57.60
67769;DHT22;54569;52.018;5.584;2023-02-28T01:27:41;2.90;57.70
67769;DHT22;54569;52.018;5.584;2023-02-28T01:30:08;2.90;57.80
67769;DHT22;54569;52.018;5.584;2023-02-28T01:32:35;3.00;57.70
67769;DHT22;54569;52.018;5.584;2023-02-28T01:35:01;3.00;57.70
67769;DHT22;54569;52.018;5.584;2023-02-28T01:37:27;3.00;57.90
67769;DHT22;54569;52.018;5.584;2023-02-28T01:39:52;3.00;57.80
67769;DHT22;54569;52.018;5.584;2023-02-28T01:42:19;3.00;57.70
67769;DHT22;54569;52.018;5.584;2023-02-28T01:47:20;3.00;57.90
67769;DHT22;54569;52.018;5.584;2023-02-28T01:49:47;3.10;58.70
67769;DHT22;54569;52.018;5.584;2023-02-28T01:52:14;3.10;57.90
67769;DHT22;54569;52.018;5.584;2023-02-28T01:54:46;3.10;57.80
67769;DHT22;54569;52.018;5.584;2023-02-28T01:57:17;3.10;57.80
67769;DHT22;54569;52.018;5.584;2023-02-28T01:59:54;3.20;57.90
67769;DHT22;54569;52.018;5.584;2023-02-28T02:02:22;3.20;57.80
67769;DHT22;54569;52.018;5.584;2023-02-28T02:05:05;3.20;57.90
67769;DHT22;54569;52.018;5.584;2023-02-28T02:07:36;3.20;57.70
67769;DHT22;54569;52.018;5.584;2023-02-28T02:15:34;3.30;57.90
67769;DHT22;54569;52.018;5.584;2023-02-28T02:34:17;3.30;58.00
67769;DHT22;54569;52.018;5.584;2023-02-28T02:41:59;3.40;58.10
67769;DHT22;54569;52.018;5.584;2023-02-28T02:45:19;3.40;58.00
67769;DHT22;54569;52.018;5.584;2023-02-28T02:47:37;3.40;58.50
67769;DHT22;54569;52.018;5.584;2023-02-28T02:50:07;3.40;58.20
67769;DHT22;54569;52.018;5.584;2023-02-28T02:52:49;3.40;57.90
67769;DHT22;54569;52.018;5.584;2023-02-28T02:55:17;3.40;58.30
67769;DHT22;54569;52.018;5.584;2023-02-28T02:57:59;3.40;58.10
67769;DHT22;54569;52.018;5.584;2023-02-28T03:00:33;3.40;58.10
67769;DHT22;54569;52.018;5.584;2023-02-28T03:03:00;3.50;58.00
67769;DHT22;54569;52.018;5.584;2023-02-28T03:05:47;3.50;58.10
67769;DHT22;54569;52.018;5.584;2023-02-28T03:08:13;3.50;58.10
67769;DHT22;54569;52.018;5.584;2023-02-28T03:10:44;3.50;58.30
67769;DHT22;54569;52.018;5.584;2023-02-28T03:19:24;3.50;58.20
67769;DHT22;54569;52.018;5.584;2023-02-28T03:21:45;3.50;58.20
67769;DHT22;54569;52.018;5.584;2023-02-28T03:26:44;3.50;58.20
67769;DHT22;54569;52.018;5.584;2023-02-28T03:29:31;3.50;58.20
67769;DHT22;54569;52.018;5.584;2023-02-28T03:34:55;3.50;59.00
67769;DHT22;54569;52.018;5.584;2023-02-28T03:37:23;3.50;58.30
67769;DHT22;54569;52.018;5.584;2023-02-28T03:39:58;3.50;57.80
67769;DHT22;54569;52.018;5.584;2023-02-28T03:42:28;3.40;58.10
67769;DHT22;54569;52.018;5.584;2023-02-28T03:45:21;3.40;58.40
67769;DHT22;54569;52.018;5.584;2023-02-28T03:48:02;3.40;59.10
67769;DHT22;54569;52.018;5.584;2023-02-28T03:50:37;3.40;58.30
67769;DHT22;54569;52.018;5.584;2023-02-28T03:56:16;3.40;58.70
67769;DHT22;54569;52.018;5.584;2023-02-28T04:01:44;3.30;58.10
67769;DHT22;54569;52.018;5.584;2023-02-28T04:04:11;3.30;58.70
67769;DHT22;54569;52.018;5.584;2023-02-28T04:06:38;3.30;57.60
67769;DHT22;54569;52.018;5.584;2023-02-28T04:09:05;3.20;57.50
67769;DHT22;54569;52.018;5.584;2023-02-28T04:11:39;3.20;57.80
67769;DHT22;54569;52.018;5.584;2023-02-28T04:14:06;3.10;57.90
67769;DHT22;54569;52.018;5.584;2023-02-28T04:16:34;3.10;58.40
67769;DHT22;54569;52.018;5.584;2023-02-28T04:19:02;3.00;58.30
67769;DHT22;54569;52.018;5.584;2023-02-28T04:21:35;3.00;58.10
67769;DHT22;54569;52.018;5.584;2023-02-28T04:24:02;2.90;57.60
67769;DHT22;54569;52.018;5.584;2023-02-28T04:26:36;2.90;57.40
67769;DHT22;54569;52.018;5.584;2023-02-28T04:29:03;2.80;58.10
67769;DHT22;54569;52.018;5.584;2023-02-28T04:31:29;2.70;58.50
67769;DHT22;54569;52.018;5.584;2023-02-28T04:33:55;2.60;58.30
67769;DHT22;54569;52.018;5.584;2023-02-28T04:36:21;2.60;58.00
67769;DHT22;54569;52.018;5.584;2023-02-28T04:38:48;2.60;58.10
67769;DHT22;54569;52.018;5.584;2023-02-28T04:41:15;2.60;58.20
67769;DHT22;54569;52.018;5.584;2023-02-28T04:43:41;2.60;58.20
67769;DHT22;54569;52.018;5.584;2023-02-28T04:46:07;2.60;58.20
67769;DHT22;54569;52.018;5.584;2023-02-28T04:48:36;2.70;58.50
67769;DHT22;54569;52.018;5.584;2023-02-28T04:51:10;2.70;58.30
67769;DHT22;54569;52.018;5.584;2023-02-28T04:53:37;2.70;58.60
67769;DHT22;54569;52.018;5.584;2023-02-28T04:56:05;2.70;58.60
67769;DHT22;54569;52.018;5.584;2023-02-28T04:58:31;2.70;58.30
67769;DHT22;54569;52.018;5.584;2023-02-28T05:01:28;2.70;58.40
67769;DHT22;54569;52.018;5.584;2023-02-28T05:03:56;2.80;59.90
67769;DHT22;54569;52.018;5.584;2023-02-28T05:06:25;2.80;58.90
67769;DHT22;54569;52.018;5.584;2023-02-28T05:08:52;2.80;58.70
67769;DHT22;54569;52.018;5.584;2023-02-28T05:11:24;2.90;58.90
67769;DHT22;54569;52.018;5.584;2023-02-28T05:13:50;2.90;58.80
67769;DHT22;54569;52.018;5.584;2023-02-28T05:16:17;2.90;58.90
67769;DHT22;54569;52.018;5.584;2023-02-28T05:18:43;2.90;58.90
67769;DHT22;54569;52.018;5.584;2023-02-28T05:21:29;2.90;59.10
67769;DHT22;54569;52.018;5.584;2023-02-28T05:23:57;3.00;59.60
67769;DHT22;54569;52.018;5.584;2023-02-28T05:26:23;3.00;59.00
67769;DHT22;54569;52.018;5.584;2023-02-28T05:28:49;3.10;59.00
67769;DHT22;54569;52.018;5.584;2023-02-28T05:31:14;3.10;58.90
67769;DHT22;54569;52.018;5.584;2023-02-28T05:33:41;3.10;58.80
67769;DHT22;54569;52.018;5.584;2023-02-28T05:36:07;3.10;58.70
67769;DHT22;54569;52.018;5.584;2023-02-28T05:38:32;3.10;58.70
67769;DHT22;54569;52.018;5.584;2023-02-28T05:40:58;3.10;58.70
67769;DHT22;54569;52.018;5.584;2023-02-28T05:43:24;3.10;58.70
67769;DHT22;54569;52.018;5.584;2023-02-28T05:45:51;3.10;58.70
67769;DHT22;54569;52.018;5.584;2023-02-28T05:48:17;3.10;58.70
67769;DHT22;54569;52.018;5.584;2023-02-28T05:50:43;3.10;58.70
67769;DHT22;54569;52.018;5.584;2023-02-28T05:53:11;3.10;58.80
67769;DHT22;54569;52.018;5.584;2023-02-28T05:55:37;3.10;58.90
67769;DHT22;54569;52.018;5.584;2023-02-28T05:58:03;3.10;58.90
67769;DHT22;54569;52.018;5.584;2023-02-28T06:00:29;3.20;58.90
67769;DHT22;54569;52.018;5.584;2023-02-28T06:02:54;3.20;59.00
67769;DHT22;54569;52.018;5.584;2023-02-28T06:05:23;3.20;59.10
67769;DHT22;54569;52.018;5.584;2023-02-28T06:07:50;3.20;59.00
67769;DHT22;54569;52.018;5.584;2023-02-28T06:10:16;3.10;59.10
67769;DHT22;54569;52.018;5.584;2023-02-28T06:12:42;3.20;59.10
67769;DHT22;54569;52.018;5.584;2023-02-28T06:15:12;3.20;59.10
67769;DHT22;54569;52.018;5.584;2023-02-28T06:17:38;3.20;59.00
67769;DHT22;54569;52.018;5.584;2023-02-28T06:20:05;3.10;59.10
67769;DHT22;54569;52.018;5.584;2023-02-28T06:22:31;3.20;59.20
67769;DHT22;54569;52.018;5.584;2023-02-28T06:24:56;3.20;59.20
67769;DHT22;54569;52.018;5.584;2023-02-28T06:27:23;3.10;59.20
67769;DHT22;54569;52.018;5.584;2023-02-28T06:29:48;3.10;59.20
67769;DHT22;54569;52.018;5.584;2023-02-28T06:32:14;3.10;59.30
67769;DHT22;54569;52.018;5.584;2023-02-28T06:34:40;3.10;59.20
67769;DHT22;54569;52.018;5.584;2023-02-28T06:37:06;3.10;59.30
67769;DHT22;54569;52.018;5.584;2023-02-28T06:39:32;3.20;59.30
67769;DHT22;54569;52.018;5.584;2023-02-28T06:41:57;3.10;59.60
67769;DHT22;54569;52.018;5.584;2023-02-28T06:44:23;3.20;59.50
67769;DHT22;54569;52.018;5.584;2023-02-28T06:46:49;3.20;59.40
67769;DHT22;54569;52.018;5.584;2023-02-28T06:49:15;3.20;59.40
67769;DHT22;54569;52.018;5.584;2023-02-28T06:51:43;3.20;59.50
67769;DHT22;54569;52.018;5.584;2023-02-28T06:54:12;3.20;59.30
67769;DHT22;54569;52.018;5.584;2023-02-28T06:56:38;3.20;59.50
67769;DHT22;54569;52.018;5.584;2023-02-28T06:59:04;3.20;59.50
67769;DHT22;54569;52.018;5.584;2023-02-28T07:01:30;3.20;59.50
67769;DHT22;54569;52.018;5.584;2023-02-28T07:03:58;3.20;59.50
67769;DHT22;54569;52.018;5.584;2023-02-28T07:06:26;3.20;59.60
67769;DHT22;54569;52.018;5.584;2023-02-28T07:08:52;3.20;59.50
67769;DHT22;54569;52.018;5.584;2023-02-28T07:11:19;3.20;59.50
67769;DHT22;54569;52.018;5.584;2023-02-28T07:13:45;3.30;59.50
67769;DHT22;54569;52.018;5.584;2023-02-28T07:16:12;3.40;59.60
67769;DHT22;54569;52.018;5.584;2023-02-28T07:18:39;3.40;59.40
67769;DHT22;54569;52.018;5.584;2023-02-28T07:21:06;3.50;59.40
67769;DHT22;54569;52.018;5.584;2023-02-28T07:23:32;3.50;59.30
67769;DHT22;54569;52.018;5.584;2023-02-28T07:25:58;3.60;59.20
67769;DHT22;54569;52.018;5.584;2023-02-28T07:28:24;3.60;59.20
67769;DHT22;54569;52.018;5.584;2023-02-28T07:30:50;3.70;59.10
67769;DHT22;54569;52.018;5.584;2023-02-28T07:33:16;3.80;59.80
67769;DHT22;54569;52.018;5.584;2023-02-28T07:35:42;3.90;58.90
67769;DHT22;54569;52.018;5.584;2023-02-28T07:38:08;3.90;58.70
67769;DHT22;54569;52.018;5.584;2023-02-28T07:40:34;3.90;58.70
67769;DHT22;54569;52.018;5.584;2023-02-28T07:43:01;4.00;58.60
67769;DHT22;54569;52.018;5.584;2023-02-28T07:45:27;4.00;58.50
67769;DHT22;54569;52.018;5.584;2023-02-28T07:47:54;3.90;58.40
67769;DHT22;54569;52.018;5.584;2023-02-28T07:50:20;4.00;58.50
67769;DHT22;54569;52.018;5.584;2023-02-28T07:52:46;4.00;58.70
67769;DHT22;54569;52.018;5.584;2023-02-28T07:55:12;4.00;58.40
67769;DHT22;54569;52.018;5.584;2023-02-28T07:57:40;4.10;58.50
67769;DHT22;54569;52.018;5.584;2023-02-28T08:00:09;4.10;57.50
67769;DHT22;54569;52.018;5.584;2023-02-28T08:02:39;4.10;56.70
67769;DHT22;54569;52.018;5.584;2023-02-28T08:05:06;4.00;56.90
67769;DHT22;54569;52.018;5.584;2023-02-28T08:07:32;4.00;56.80
67769;DHT22;54569;52.018;5.584;2023-02-28T08:09:59;4.00;56.50
67769;DHT22;54569;52.018;5.584;2023-02-28T08:12:25;4.00;56.00
67769;DHT22;54569;52.018;5.584;2023-02-28T08:14:51;4.00;56.10
67769;DHT22;54569;52.018;5.584;2023-02-28T08:17:16;4.10;55.90
67769;DHT22;54569;52.018;5.584;2023-02-28T08:19:44;4.20;55.70
67769;DHT22;54569;52.018;5.584;2023-02-28T08:22:10;4.30;55.40
67769;DHT22;54569;52.018;5.584;2023-02-28T08:24:36;4.40;55.00
67769;DHT22;54569;52.018;5.584;2023-02-28T08:27:01;4.70;54.60
67769;DHT22;54569;52.018;5.584;2023-02-28T08:29:27;5.00;53.80
67769;DHT22;54569;52.018;5.584;2023-02-28T08:31:53;6.10;53.10
67769;DHT22;54569;52.018;5.584;2023-02-28T08:34:18;8.40;50.90
67769;DHT22;54569;52.018;5.584;2023-02-28T08:36:44;10.90;46.60
67769;DHT22;54569;52.018;5.584;2023-02-28T08:39:11;12.40;44.00
67769;DHT22;54569;52.018;5.584;2023-02-28T08:41:37;12.70;43.00
67769;DHT22;54569;52.018;5.584;2023-02-28T08:44:03;12.40;43.00
67769;DHT22;54569;52.018;5.584;2023-02-28T08:46:29;12.00;44.00
67769;DHT22;54569;52.018;5.584;2023-02-28T08:48:55;11.70;44.40
67769;DHT22;54569;52.018;5.584;2023-02-28T08:51:24;11.60;44.60
67769;DHT22;54569;52.018;5.584;2023-02-28T08:54:02;12.00;44.50
67769;DHT22;54569;52.018;5.584;2023-02-28T08:56:28;12.60;43.70
67769;DHT22;54569;52.018;5.584;2023-02-28T08:58:55;13.30;43.00
67769;DHT22;54569;52.018;5.584;2023-02-28T09:01:27;13.90;42.50
67769;DHT22;54569;52.018;5.584;2023-02-28T09:03:54;14.80;39.40
67769;DHT22;54569;52.018;5.584;2023-02-28T09:06:21;15.50;40.60
67769;DHT22;54569;52.018;5.584;2023-02-28T09:08:47;16.00;39.70
67769;DHT22;54569;52.018;5.584;2023-02-28T09:11:13;16.40;39.80
67769;DHT22;54569;52.018;5.584;2023-02-28T09:13:39;17.60;38.70
67769;DHT22;54569;52.018;5.584;2023-02-28T09:16:07;18.60;37.20
67769;DHT22;54569;52.018;5.584;2023-02-28T09:18:35;19.00;37.30
67769;DHT22;54569;52.018;5.584;2023-02-28T09:21:08;20.20;36.60
67769;DHT22;54569;52.018;5.584;2023-02-28T09:23:35;20.80;34.90
67769;DHT22;54569;52.018;5.584;2023-02-28T09:26:03;21.80;34.80
67769;DHT22;54569;52.018;5.584;2023-02-28T09:28:29;22.80;34.50
67769;DHT22;54569;52.018;5.584;2023-02-28T09:30:55;23.60;34.10
67769;DHT22;54569;52.018;5.584;2023-02-28T09:33:23;23.50;33.60
67769;DHT22;54569;52.018;5.584;2023-02-28T09:35:50;23.60;33.90
67769;DHT22;54569;52.018;5.584;2023-02-28T09:38:16;23.80;33.90
67769;DHT22;54569;52.018;5.584;2023-02-28T09:41:03;24.50;33.80
67769;DHT22;54569;52.018;5.584;2023-02-28T09:43:35;25.10;32.40
67769;DHT22;54569;52.018;5.584;2023-02-28T09:46:16;24.70;31.60
67769;DHT22;54569;52.018;5.584;2023-02-28T09:48:45;24.50;31.60
67769;DHT22;54569;52.018;5.584;2023-02-28T09:54:03;24.70;27.60
67769;DHT22;54569;52.018;5.584;2023-02-28T09:56:39;23.80;34.50
67769;DHT22;54569;52.018;5.584;2023-02-28T09:59:18;23.80;30.60
67769;DHT22;54569;52.018;5.584;2023-02-28T10:04:56;24.10;32.20
67769;DHT22;54569;52.018;5.584;2023-02-28T10:10:32;24.60;32.60
67769;DHT22;54569;52.018;5.584;2023-02-28T10:13:00;24.90;30.50
67769;DHT22;54569;52.018;5.584;2023-02-28T10:15:30;25.30;31.70
67769;DHT22;54569;52.018;5.584;2023-02-28T10:18:11;25.70;31.50
67769;DHT22;54569;52.018;5.584;2023-02-28T10:20:39;25.60;31.00
67769;DHT22;54569;52.018;5.584;2023-02-28T10:23:32;25.70;37.80
67769;DHT22;54569;52.018;5.584;2023-02-28T10:26:08;26.80;28.40
67769;DHT22;54569;52.018;5.584;2023-02-28T10:28:35;27.90;56.60
67769;DHT22;54569;52.018;5.584;2023-02-28T10:31:02;28.20;29.90
67769;DHT22;54569;52.018;5.584;2023-02-28T10:35:55;27.00;29.80
67769;DHT22;54569;52.018;5.584;2023-02-28T10:38:28;26.70;30.40
67769;DHT22;54569;52.018;5.584;2023-02-28T10:41:26;26.40;30.00
67769;DHT22;54569;52.018;5.584;2023-02-28T10:43:53;26.40;26.00
67769;DHT22;54569;52.018;5.584;2023-02-28T10:46:34;26.90;30.20
67769;DHT22;54569;52.018;5.584;2023-02-28T10:49:06;27.20;30.40
67769;DHT22;54569;52.018;5.584;2023-02-28T10:51:40;28.20;28.60
67769;DHT22;54569;52.018;5.584;2023-02-28T10:54:19;29.00;27.60
67769;DHT22;54569;52.018;5.584;2023-02-28T10:56:45;29.20;28.60
67769;DHT22;54569;52.018;5.584;2023-02-28T10:59:29;28.70;29.20
67769;DHT22;54569;52.018;5.584;2023-02-28T11:01:56;28.10;26.30
67769;DHT22;54569;52.018;5.584;2023-02-28T11:06:58;27.40;42.00
67769;DHT22;54569;52.018;5.584;2023-02-28T11:09:31;27.60;33.30
67769;DHT22;54569;52.018;5.584;2023-02-28T11:11:58;27.00;29.10
67769;DHT22;54569;52.018;5.584;2023-02-28T11:14:32;27.40;29.30
67769;DHT22;54569;52.018;5.584;2023-02-28T11:17:19;27.50;28.00
67769;DHT22;54569;52.018;5.584;2023-02-28T11:19:48;27.60;28.70
67769;DHT22;54569;52.018;5.584;2023-02-28T11:22:20;27.30;28.90
67769;DHT22;54569;52.018;5.584;2023-02-28T11:24:50;26.90;30.00
67769;DHT22;54569;52.018;5.584;2023-02-28T11:27:47;26.00;28.90
67769;DHT22;54569;52.018;5.584;2023-02-28T11:30:40;25.90;29.50
67769;DHT22;54569;52.018;5.584;2023-02-28T11:33:30;26.30;27.60
67769;DHT22;54569;52.018;5.584;2023-02-28T11:36:01;26.80;26.30
67769;DHT22;54569;52.018;5.584;2023-02-28T11:38:27;27.20;28.20
67769;DHT22;54569;52.018;5.584;2023-02-28T11:49:13;27.90;24.70
67769;DHT22;54569;52.018;5.584;2023-02-28T11:51:59;26.70;28.30
67769;DHT22;54569;52.018;5.584;2023-02-28T11:57:30;24.00;30.40
67769;DHT22;54569;52.018;5.584;2023-02-28T12:03:00;23.20;27.90
67769;DHT22;54569;52.018;5.584;2023-02-28T12:19:31;18.30;31.00
67769;DHT22;54569;52.018;5.584;2023-02-28T12:22:06;17.60;33.30
67769;DHT22;54569;52.018;5.584;2023-02-28T12:27:40;15.90;30.50
67769;DHT22;54569;52.018;5.584;2023-02-28T12:30:17;15.60;34.70
67769;DHT22;54569;52.018;5.584;2023-02-28T12:32:48;15.40;33.40
67769;DHT22;54569;52.018;5.584;2023-02-28T12:35:19;15.90;33.10
67769;DHT22;54569;52.018;5.584;2023-02-28T12:38:04;16.50;31.70
67769;DHT22;54569;52.018;5.584;2023-02-28T12:40:47;16.40;30.80
67769;DHT22;54569;52.018;5.584;2023-02-28T12:43:16;16.10;32.00
67769;DHT22;54569;52.018;5.584;2023-02-28T12:45:53;15.60;32.40
67769;DHT22;54569;52.018;5.584;2023-02-28T12:49:13;14.90;33.00
67769;DHT22;54569;52.018;5.584;2023-02-28T12:51:15;14.60;33.20
67769;DHT22;54569;52.018;5.584;2023-02-28T12:56:48;13.70;32.00
67769;DHT22;54569;52.018;5.584;2023-02-28T12:59:38;13.30;33.60
67769;DHT22;54569;52.018;5.584;2023-02-28T13:05:22;13.30;32.70
67769;DHT22;54569;52.018;5.584;2023-02-28T13:08:11;13.40;31.80
67769;DHT22;54569;52.018;5.584;2023-02-28T13:10:48;13.30;33.20
67769;DHT22;54569;52.018;5.584;2023-02-28T13:13:23;13.00;33.70
67769;DHT22;54569;52.018;5.584;2023-02-28T13:16:08;12.80;34.10
67769;DHT22;54569;52.018;5.584;2023-02-28T13:21:03;12.60;34.30
67769;DHT22;54569;52.018;5.584;2023-02-28T13:23:41;12.50;34.10
67769;DHT22;54569;52.018;5.584;2023-02-28T13:39:53;11.60;33.20
67769;DHT22;54569;52.018;5.584;2023-02-28T13:47:29;11.50;33.60
67769;DHT22;54569;52.018;5.584;2023-02-28T13:58:25;10.80;34.70
67769;DHT22;54569;52.018;5.584;2023-02-28T14:06:31;10.70;34.80
67769;DHT22;54569;52.018;5.584;2023-02-28T14:11:34;10.50;34.30
67769;DHT22;54569;52.018;5.584;2023-02-28T14:14:01;10.40;35.00
67769;DHT22;54569;52.018;5.584;2023-02-28T14:16:44;10.30;34.90
67769;DHT22;54569;52.018;5.584;2023-02-28T14:19:25;10.30;35.00
67769;DHT22;54569;52.018;5.584;2023-02-28T14:22:37;10.20;34.70
67769;DHT22;54569;52.018;5.584;2023-02-28T14:25:28;10.20;35.00
67769;DHT22;54569;52.018;5.584;2023-02-28T14:36:37;9.80;35.30
67769;DHT22;54569;52.018;5.584;2023-02-28T14:39:14;9.70;35.00
67769;DHT22;54569;52.018;5.584;2023-02-28T14:41:43;9.60;35.30
67769;DHT22;54569;52.018;5.584;2023-02-28T14:44:20;9.60;35.30
67769;DHT22;54569;52.018;5.584;2023-02-28T14:46:49;9.60;35.40
67769;DHT22;54569;52.018;5.584;2023-02-28T14:49:26;9.60;35.50
67769;DHT22;54569;52.018;5.584;2023-02-28T14:54:40;9.60;35.20
67769;DHT22;54569;52.018;5.584;2023-02-28T14:57:06;9.50;35.50
67769;DHT22;54569;52.018;5.584;2023-02-28T14:59:34;9.50;35.60
67769;DHT22;54569;52.018;5.584;2023-02-28T15:02:23;9.50;35.80
67769;DHT22;54569;52.018;5.584;2023-02-28T15:04:58;9.50;35.60
67769;DHT22;54569;52.018;5.584;2023-02-28T15:07:24;9.50;35.70
67769;DHT22;54569;52.018;5.584;2023-02-28T15:10:08;9.40;35.70
67769;DHT22;54569;52.018;5.584;2023-02-28T15:12:35;9.30;35.80
67769;DHT22;54569;52.018;5.584;2023-02-28T15:15:01;9.30;36.00
67769;DHT22;54569;52.018;5.584;2023-02-28T15:17:27;9.20;36.20
67769;DHT22;54569;52.018;5.584;2023-02-28T15:19:53;9.20;36.10
67769;DHT22;54569;52.018;5.584;2023-02-28T15:22:28;9.10;36.10
67769;DHT22;54569;52.018;5.584;2023-02-28T15:24:55;9.00;36.20
67769;DHT22;54569;52.018;5.584;2023-02-28T15:27:25;8.90;36.20
67769;DHT22;54569;52.018;5.584;2023-02-28T15:29:56;8.90;36.20
67769;DHT22;54569;52.018;5.584;2023-02-28T15:32:36;8.90;36.10
67769;DHT22;54569;52.018;5.584;2023-02-28T15:35:37;8.80;36.00
67769;DHT22;54569;52.018;5.584;2023-02-28T15:38:16;8.80;36.10
67769;DHT22;54569;52.018;5.584;2023-02-28T15:40:50;8.80;36.30
67769;DHT22;54569;52.018;5.584;2023-02-28T15:43:30;8.70;36.40
67769;DHT22;54569;52.018;5.584;2023-02-28T15:48:34;8.60;36.40
67769;DHT22;54569;52.018;5.584;2023-02-28T15:51:17;8.60;36.50
67769;DHT22;54569;52.018;5.584;2023-02-28T15:53:51;8.60;36.50
67769;DHT22;54569;52.018;5.584;2023-02-28T15:59:06;8.50;36.70
67769;DHT22;54569;52.018;5.584;2023-02-28T16:01:37;8.50;36.90
67769;DHT22;54569;52.018;5.584;2023-02-28T16:04:18;8.50;37.10
67769;DHT22;54569;52.018;5.584;2023-02-28T16:09:15;8.40;36.90
67769;DHT22;54569;52.018;5.584;2023-02-28T16:11:49;8.40;37.00
67769;DHT22;54569;52.018;5.584;2023-02-28T16:14:22;8.40;37.20
67769;DHT22;54569;52.018;5.584;2023-02-28T16:16:54;8.40;37.00
67769;DHT22;54569;52.018;5.584;2023-02-28T16:19:21;8.30;37.20
67769;DHT22;54569;52.018;5.584;2023-02-28T16:21:47;8.30;37.10
67769;DHT22;54569;52.018;5.584;2023-02-28T16:24:16;8.20;37.10
67769;DHT22;54569;52.018;5.584;2023-02-28T16:26:46;8.20;37.10
67769;DHT22;54569;52.018;5.584;2023-02-28T16:29:18;8.10;37.20
67769;DHT22;54569;52.018;5.584;2023-02-28T16:31:47;8.10;37.50
67769;DHT22;54569;52.018;5.584;2023-02-28T16:34:13;8.00;37.70
67769;DHT22;54569;52.018;5.584;2023-02-28T16:36:39;8.00;37.80
67769;DHT22;54569;52.018;5.584;2023-02-28T16:39:07;7.90;38.00
67769;DHT22;54569;52.018;5.584;2023-02-28T16:41:33;7.90;37.90
67769;DHT22;54569;52.018;5.584;2023-02-28T16:43:59;7.80;37.70
67769;DHT22;54569;52.018;5.584;2023-02-28T16:46:34;7.70;37.90
67769;DHT22;54569;52.018;5.584;2023-02-28T16:49:00;7.70;38.00
67769;DHT22;54569;52.018;5.584;2023-02-28T16:51:26;7.60;37.80
67769;DHT22;54569;52.018;5.584;2023-02-28T16:53:51;7.50;37.60
67769;DHT22;54569;52.018;5.584;2023-02-28T16:56:22;7.40;37.60
67769;DHT22;54569;52.018;5.584;2023-02-28T16:58:50;7.40;37.70
67769;DHT22;54569;52.018;5.584;2023-02-28T17:01:17;7.20;37.80
67769;DHT22;54569;52.018;5.584;2023-02-28T17:03:48;7.20;37.90
67769;DHT22;54569;52.018;5.584;2023-02-28T17:06:20;7.10;38.00
67769;DHT22;54569;52.018;5.584;2023-02-28T17:08:48;7.10;38.10
67769;DHT22;54569;52.018;5.584;2023-02-28T17:11:14;7.00;38.10
67769;DHT22;54569;52.018;5.584;2023-02-28T17:13:39;6.90;38.20
67769;DHT22;54569;52.018;5.584;2023-02-28T17:16:05;6.90;38.20
67769;DHT22;54569;52.018;5.584;2023-02-28T17:18:31;6.80;38.30
67769;DHT22;54569;52.018;5.584;2023-02-28T17:21:00;6.70;38.40
67769;DHT22;54569;52.018;5.584;2023-02-28T17:23:26;6.70;38.70
67769;DHT22;54569;52.018;5.584;2023-02-28T17:25:52;6.60;38.70
67769;DHT22;54569;52.018;5.584;2023-02-28T17:28:21;6.60;38.70
67769;DHT22;54569;52.018;5.584;2023-02-28T17:30:47;6.60;38.60
67769;DHT22;54569;52.018;5.584;2023-02-28T17:33:14;6.50;38.80
67769;DHT22;54569;52.018;5.584;2023-02-28T17:35:40;6.40;38.80
67769;DHT22;54569;52.018;5.584;2023-02-28T17:38:15;6.40;39.00
67769;DHT22;54569;52.018;5.584;2023-02-28T17:40:41;6.30;39.10
67769;DHT22;54569;52.018;5.584;2023-02-28T17:43:06;6.30;39.10
67769;DHT22;54569;52.018;5.584;2023-02-28T17:45:32;6.20;39.20
67769;DHT22;54569;52.018;5.584;2023-02-28T17:48:00;6.20;39.40
67769;DHT22;54569;52.018;5.584;2023-02-28T17:50:26;6.10;39.60
67769;DHT22;54569;52.018;5.584;2023-02-28T17:52:52;6.10;40.10
67769;DHT22;54569;52.018;5.584;2023-02-28T17:55:18;6.00;40.40
67769;DHT22;54569;52.018;5.584;2023-02-28T17:57:44;6.00;40.30
67769;DHT22;54569;52.018;5.584;2023-02-28T18:00:15;5.90;40.30
67769;DHT22;54569;52.018;5.584;2023-02-28T18:02:43;5.90;40.30
67769;DHT22;54569;52.018;5.584;2023-02-28T18:05:09;5.80;40.60
67769;DHT22;54569;52.018;5.584;2023-02-28T18:07:37;5.80;41.00
67769;DHT22;54569;52.018;5.584;2023-02-28T18:10:07;5.80;41.10
67769;DHT22;54569;52.018;5.584;2023-02-28T18:12:36;5.70;41.00
67769;DHT22;54569;52.018;5.584;2023-02-28T18:15:01;5.70;41.00
67769;DHT22;54569;52.018;5.584;2023-02-28T18:17:27;5.70;41.40
67769;DHT22;54569;52.018;5.584;2023-02-28T18:19:53;5.60;41.40
67769;DHT22;54569;52.018;5.584;2023-02-28T18:22:18;5.60;41.40
67769;DHT22;54569;52.018;5.584;2023-02-28T18:24:44;5.50;41.30
67769;DHT22;54569;52.018;5.584;2023-02-28T18:27:09;5.50;41.60
67769;DHT22;54569;52.018;5.584;2023-02-28T18:29:36;5.50;41.80
67769;DHT22;54569;52.018;5.584;2023-02-28T18:32:02;5.40;41.90
67769;DHT22;54569;52.018;5.584;2023-02-28T18:34:30;5.40;41.80
67769;DHT22;54569;52.018;5.584;2023-02-28T18:36:56;5.40;41.80